createdAt,value
2019-02-06T00:02:18.453Z,77.70
2019-02-06T00:04:44.798Z,77.80
2019-02-06T00:07:11.132Z,77.70
2019-02-06T00:09:37.475Z,77.80
2019-02-06T00:12:03.943Z,77.80
2019-02-06T00:14:30.255Z,77.50
2019-02-06T00:16:56.776Z,77.70
2019-02-06T00:19:23.151Z,78.20
2019-02-06T00:21:49.536Z,78.00
2019-02-06T00:24:15.853Z,77.60
2019-02-06T00:26:42.218Z,77.30
2019-02-06T00:29:08.441Z,77.10
2019-02-06T00:31:34.761Z,77.00
2019-02-06T00:34:01.005Z,76.90
2019-02-06T00:36:27.341Z,77.40
2019-02-06T00:38:53.669Z,77.70
2019-02-06T00:41:20.110Z,77.40
2019-02-06T00:43:46.421Z,76.90
2019-02-06T00:46:12.769Z,76.40
2019-02-06T00:48:39.087Z,76.00
2019-02-06T00:51:05.459Z,75.90
2019-02-06T00:53:31.777Z,75.80
2019-02-06T00:55:58.113Z,75.60
2019-02-06T00:58:24.441Z,75.40
2019-02-06T01:00:50.769Z,75.30
2019-02-06T01:03:17.218Z,75.40
2019-02-06T01:05:43.551Z,75.70
2019-02-06T01:08:09.881Z,76.00
2019-02-06T01:10:36.182Z,76.00
2019-02-06T01:13:02.498Z,75.80
2019-02-06T01:15:29.479Z,75.90
2019-02-06T01:17:56.127Z,75.90
2019-02-06T01:20:22.457Z,76.10
2019-02-06T01:22:48.783Z,76.50
2019-02-06T01:25:15.593Z,76.70
2019-02-06T01:27:41.896Z,76.70
2019-02-06T01:30:17.581Z,76.30
2019-02-06T01:32:43.906Z,76.30
2019-02-06T01:35:11.945Z,76.50
2019-02-06T01:37:38.097Z,76.40
2019-02-06T01:40:07.733Z,76.50
2019-02-06T01:42:34.057Z,76.90
2019-02-06T01:45:00.537Z,77.20
2019-02-06T01:47:27.069Z,77.60
2019-02-06T01:49:53.389Z,77.80
2019-02-06T01:52:19.813Z,77.60
2019-02-06T01:54:46.641Z,77.70
2019-02-06T01:57:13.041Z,78.50
2019-02-06T01:59:39.624Z,77.60
2019-02-06T02:02:05.942Z,77.30
2019-02-06T02:04:32.263Z,76.70
2019-02-06T02:06:58.593Z,76.20
2019-02-06T02:09:24.972Z,75.70
2019-02-06T02:11:51.266Z,75.30
2019-02-06T02:14:17.617Z,75.10
2019-02-06T02:16:44.241Z,75.00
2019-02-06T02:19:10.578Z,75.00
2019-02-06T02:21:36.918Z,75.10
2019-02-06T02:24:03.147Z,75.20
2019-02-06T02:26:29.469Z,75.50
2019-02-06T02:28:55.889Z,75.80
2019-02-06T02:31:22.225Z,75.80
2019-02-06T02:33:48.573Z,75.70
2019-02-06T02:36:16.685Z,75.60
2019-02-06T02:38:43.253Z,75.20
2019-02-06T02:41:09.585Z,74.80
2019-02-06T02:43:35.921Z,75.10
2019-02-06T02:46:02.734Z,74.50
2019-02-06T02:48:29.079Z,74.70
2019-02-06T02:50:55.509Z,74.70
2019-02-06T02:53:21.838Z,74.50
2019-02-06T02:55:48.602Z,74.40
2019-02-06T02:58:15.029Z,74.70
2019-02-06T03:00:58.467Z,75.00
2019-02-06T03:03:26.780Z,75.40
2019-02-06T03:05:53.115Z,75.60
2019-02-06T03:08:19.452Z,75.60
2019-02-06T03:10:46.027Z,75.50
2019-02-06T03:13:12.325Z,75.30
2019-02-06T03:15:38.559Z,75.00
2019-02-06T03:18:04.913Z,75.40
2019-02-06T03:20:31.224Z,75.50
2019-02-06T03:22:57.557Z,75.50
2019-02-06T03:25:23.937Z,75.30
2019-02-06T03:27:50.265Z,74.90
2019-02-06T03:30:17.453Z,74.60
2019-02-06T03:32:43.858Z,74.20
2019-02-06T03:35:11.183Z,74.00
2019-02-06T03:37:37.510Z,74.30
2019-02-06T03:40:07.079Z,74.70
2019-02-06T03:42:33.397Z,75.20
2019-02-06T03:45:00.823Z,75.70
2019-02-06T03:47:27.179Z,76.00
2019-02-06T03:49:53.830Z,76.00
2019-02-06T03:52:20.149Z,75.80
2019-02-06T03:54:46.489Z,75.60
2019-02-06T03:57:12.837Z,75.40
2019-02-06T03:59:39.072Z,74.90
2019-02-06T04:02:05.396Z,74.40
2019-02-06T04:04:31.806Z,74.10
2019-02-06T04:07:01.073Z,74.20
2019-02-06T04:09:27.290Z,74.50
2019-02-06T04:11:53.612Z,74.70
2019-02-06T04:14:19.944Z,74.70
2019-02-06T04:16:46.289Z,74.50
2019-02-06T04:19:12.521Z,74.40
2019-02-06T04:21:38.749Z,74.70
2019-02-06T04:24:05.109Z,75.70
2019-02-06T04:26:31.426Z,76.00
2019-02-06T04:28:58.074Z,75.80
2019-02-06T04:31:24.422Z,75.30
2019-02-06T04:33:50.639Z,75.00
2019-02-06T04:36:17.045Z,74.80
2019-02-06T04:38:43.300Z,74.90
2019-02-06T04:41:09.537Z,75.10
2019-02-06T04:43:35.867Z,75.30
2019-02-06T04:46:02.129Z,75.30
2019-02-06T04:48:28.477Z,75.30
2019-02-06T04:50:54.825Z,75.10
2019-02-06T04:53:22.277Z,74.70
2019-02-06T04:55:48.621Z,74.30
2019-02-06T04:58:15.753Z,74.00
2019-02-06T05:00:42.117Z,74.00
2019-02-06T05:03:08.572Z,74.10
2019-02-06T05:05:34.875Z,74.30
2019-02-06T05:08:01.295Z,74.70
2019-02-06T05:10:27.820Z,74.90
2019-02-06T05:12:54.154Z,74.60
2019-02-06T05:15:20.505Z,74.00
2019-02-06T05:17:46.810Z,73.50
2019-02-06T05:20:22.811Z,73.20
2019-02-06T05:22:49.102Z,73.00
2019-02-06T05:25:15.455Z,73.20
2019-02-06T05:27:42.086Z,73.30
2019-02-06T05:30:09.322Z,73.50
2019-02-06T05:32:35.639Z,73.90
2019-02-06T05:35:01.982Z,74.00
2019-02-06T05:37:32.247Z,73.90
2019-02-06T05:39:56.404Z,74.00
2019-02-06T05:42:22.778Z,74.10
2019-02-06T05:44:49.090Z,74.00
2019-02-06T05:47:15.412Z,74.10
2019-02-06T05:49:41.851Z,74.20
2019-02-06T05:52:09.281Z,74.30
2019-02-06T05:54:35.617Z,74.50
2019-02-06T05:57:01.950Z,74.60
2019-02-06T05:59:28.191Z,74.90
2019-02-06T06:01:54.517Z,75.00
2019-02-06T06:04:20.867Z,75.10
2019-02-06T06:06:47.082Z,75.20
2019-02-06T06:09:14.497Z,75.20
2019-02-06T06:11:40.815Z,75.50
2019-02-06T06:14:07.130Z,75.10
2019-02-06T06:16:33.449Z,75.10
2019-02-06T06:18:59.691Z,74.80
2019-02-06T06:21:26.015Z,74.40
2019-02-06T06:23:52.346Z,74.20
2019-02-06T06:26:18.696Z,74.10
2019-02-06T06:28:45.020Z,74.00
2019-02-06T06:31:11.554Z,73.70
2019-02-06T06:33:37.910Z,73.40
2019-02-06T06:36:04.267Z,73.50
2019-02-06T06:38:30.599Z,73.80
2019-02-06T06:40:57.069Z,74.10
2019-02-06T06:43:23.442Z,74.20
2019-02-06T06:45:49.690Z,74.20
2019-02-06T06:48:16.050Z,74.10
2019-02-06T06:50:42.361Z,73.90
2019-02-06T06:53:08.696Z,73.60
2019-02-06T06:55:35.394Z,73.40
2019-02-06T06:58:01.797Z,73.20
2019-02-06T07:00:29.650Z,73.20
2019-02-06T07:02:56.009Z,73.20
2019-02-06T07:05:22.325Z,73.10
2019-02-06T07:07:48.765Z,73.10
2019-02-06T07:10:15.807Z,73.20
2019-02-06T07:12:42.135Z,73.40
2019-02-06T07:15:20.769Z,73.40
2019-02-06T07:17:47.076Z,73.60
2019-02-06T07:20:15.501Z,73.90
2019-02-06T07:22:41.940Z,74.10
2019-02-06T07:25:10.165Z,73.90
2019-02-06T07:27:36.798Z,73.60
2019-02-06T07:30:15.697Z,73.20
2019-02-06T07:32:42.025Z,72.90
2019-02-06T07:35:08.344Z,72.80
2019-02-06T07:37:34.683Z,73.00
2019-02-06T07:40:01.040Z,73.20
2019-02-06T07:42:27.373Z,73.50
2019-02-06T07:44:54.034Z,73.70
2019-02-06T07:47:20.437Z,73.80
2019-02-06T07:49:46.778Z,73.80
2019-02-06T07:52:13.265Z,73.90
2019-02-06T07:54:39.568Z,74.00
2019-02-06T07:57:05.997Z,73.80
2019-02-06T07:59:32.353Z,73.60
2019-02-06T08:01:59.305Z,73.40
2019-02-06T08:04:25.929Z,73.20
2019-02-06T08:06:52.279Z,73.10
2019-02-06T08:09:18.601Z,73.00
2019-02-06T08:11:44.937Z,73.20
2019-02-06T08:14:11.288Z,73.10
2019-02-06T08:16:37.619Z,72.90
2019-02-06T08:19:04.033Z,72.80
2019-02-06T08:21:30.358Z,72.80
2019-02-06T08:23:56.999Z,73.00
2019-02-06T08:26:24.315Z,73.00
2019-02-06T08:28:50.679Z,73.10
2019-02-06T08:31:17.084Z,72.90
2019-02-06T08:33:43.446Z,72.70
2019-02-06T08:36:09.805Z,72.60
2019-02-06T08:38:47.092Z,72.70
2019-02-06T08:41:04.293Z,72.70
2019-02-06T08:43:31.151Z,72.70
2019-02-06T08:45:57.481Z,72.80
2019-02-06T08:48:23.865Z,72.80
2019-02-06T08:50:50.206Z,72.70
2019-02-06T08:53:16.526Z,72.70
2019-02-06T08:55:42.850Z,72.40
2019-02-06T08:58:09.206Z,72.50
2019-02-06T09:00:37.634Z,72.50
2019-02-06T09:03:06.088Z,72.40
2019-02-06T09:05:32.343Z,72.50
2019-02-06T09:07:58.656Z,72.60
2019-02-06T09:10:26.801Z,72.70
2019-02-06T09:12:54.125Z,72.50
2019-02-06T09:15:20.801Z,72.10
2019-02-06T09:17:47.125Z,71.80
2019-02-06T09:20:15.673Z,71.70
2019-02-06T09:22:42.369Z,71.50
2019-02-06T09:25:12.425Z,71.70
2019-02-06T09:27:38.843Z,72.00
2019-02-06T09:30:08.876Z,72.20
2019-02-06T09:32:35.203Z,72.50
2019-02-06T09:35:01.549Z,72.70
2019-02-06T09:37:27.881Z,72.90
2019-02-06T09:39:54.205Z,72.90
2019-02-06T09:42:20.559Z,73.00
2019-02-06T09:44:46.879Z,72.90
2019-02-06T09:47:13.223Z,72.80
2019-02-06T09:49:41.553Z,72.70
2019-02-06T09:52:07.699Z,72.70
2019-02-06T09:54:34.116Z,72.60
2019-02-06T09:57:00.545Z,72.50
2019-02-06T09:59:26.880Z,72.80
2019-02-06T10:01:53.505Z,72.10
2019-02-06T10:04:19.761Z,71.80
2019-02-06T10:06:46.082Z,71.70
2019-02-06T10:09:22.306Z,71.90
2019-02-06T10:11:40.489Z,72.00
2019-02-06T10:14:06.829Z,72.10
2019-02-06T10:16:33.092Z,72.20
2019-02-06T10:19:00.537Z,72.60
2019-02-06T10:21:27.262Z,72.20
2019-02-06T10:23:53.593Z,72.30
2019-02-06T10:26:19.913Z,72.40
2019-02-06T10:28:46.223Z,72.60
2019-02-06T10:31:12.461Z,72.80
2019-02-06T10:33:38.789Z,72.90
2019-02-06T10:36:05.109Z,73.00
2019-02-06T10:38:31.433Z,73.20
2019-02-06T10:40:58.198Z,73.30
2019-02-06T10:43:31.583Z,73.30
2019-02-06T10:45:52.653Z,73.30
2019-02-06T10:48:20.085Z,73.40
2019-02-06T10:50:47.218Z,73.50
2019-02-06T10:53:13.546Z,73.70
2019-02-06T10:55:40.018Z,73.40
2019-02-06T10:58:06.483Z,73.10
2019-02-06T11:00:36.529Z,73.10
2019-02-06T11:03:03.699Z,73.10
2019-02-06T11:05:33.553Z,72.80
2019-02-06T11:07:59.882Z,72.80
2019-02-06T11:10:27.033Z,72.70
2019-02-06T11:12:53.449Z,72.70
2019-02-06T11:15:19.686Z,72.50
2019-02-06T11:17:46.043Z,72.30
2019-02-06T11:20:18.029Z,72.90
2019-02-06T11:22:44.358Z,72.50
2019-02-06T11:25:12.789Z,72.40
2019-02-06T11:27:39.119Z,72.20
2019-02-06T11:30:09.226Z,72.10
2019-02-06T11:32:35.578Z,72.10
2019-02-06T11:35:04.422Z,72.30
2019-02-06T11:37:30.759Z,72.30
2019-02-06T11:39:58.280Z,72.30
2019-02-06T11:42:24.626Z,72.40
2019-02-06T11:44:51.272Z,72.40
2019-02-06T11:47:17.629Z,72.50
2019-02-06T11:49:44.369Z,72.70
2019-02-06T11:52:10.701Z,73.00
2019-02-06T11:54:37.521Z,73.60
2019-02-06T11:57:03.846Z,73.00
2019-02-06T11:59:30.196Z,73.00
2019-02-06T12:01:56.577Z,73.10
2019-02-06T12:04:22.896Z,73.10
2019-02-06T12:06:49.221Z,73.20
2019-02-06T12:09:15.621Z,73.20
2019-02-06T12:11:41.949Z,73.10
2019-02-06T12:14:08.186Z,73.20
2019-02-06T12:16:34.639Z,73.10
2019-02-06T12:19:00.962Z,73.10
2019-02-06T12:21:27.276Z,73.30
2019-02-06T12:23:53.602Z,73.60
2019-02-06T12:26:19.827Z,73.90
2019-02-06T12:28:46.709Z,74.00
2019-02-06T12:31:13.167Z,73.90
2019-02-06T12:33:39.541Z,73.70
2019-02-06T12:36:07.251Z,73.60
2019-02-06T12:38:33.615Z,73.40
2019-02-06T12:40:59.935Z,73.40
2019-02-06T12:43:27.264Z,73.40
2019-02-06T12:45:53.765Z,73.40
2019-02-06T12:48:20.077Z,73.40
2019-02-06T12:50:46.418Z,73.20
2019-02-06T12:53:12.765Z,73.20
2019-02-06T12:55:39.996Z,73.20
2019-02-06T12:58:07.120Z,73.20
2019-02-06T13:00:36.634Z,73.10
2019-02-06T13:03:02.883Z,73.00
2019-02-06T13:05:29.474Z,72.90
2019-02-06T13:07:55.845Z,73.00
2019-02-06T13:10:33.220Z,72.80
2019-02-06T13:12:50.848Z,73.00
2019-02-06T13:15:18.713Z,73.00
2019-02-06T13:17:45.057Z,73.00
2019-02-06T13:20:14.377Z,72.90
2019-02-06T13:22:40.714Z,72.90
2019-02-06T13:25:09.038Z,73.10
2019-02-06T13:27:35.366Z,73.20
2019-02-06T13:30:01.939Z,73.30
2019-02-06T13:32:28.267Z,73.50
2019-02-06T13:34:54.581Z,73.40
2019-02-06T13:37:21.165Z,73.60
2019-02-06T13:39:47.385Z,73.60
2019-02-06T13:42:13.715Z,73.70
2019-02-06T13:44:41.649Z,73.90
2019-02-06T13:47:07.846Z,73.90
2019-02-06T13:49:34.206Z,74.00
2019-02-06T13:52:00.540Z,74.20
2019-02-06T13:54:26.854Z,74.20
2019-02-06T13:56:53.590Z,74.20
2019-02-06T13:59:20.118Z,74.20
2019-02-06T14:01:46.475Z,74.20
2019-02-06T14:04:12.809Z,74.10
2019-02-06T14:06:39.149Z,74.20
2019-02-06T14:09:07.642Z,74.10
2019-02-06T14:11:33.896Z,74.10
2019-02-06T14:14:00.254Z,74.20
2019-02-06T14:16:27.249Z,74.30
2019-02-06T14:18:53.605Z,74.30
2019-02-06T14:21:19.954Z,74.30
2019-02-06T14:23:50.109Z,74.30
2019-02-06T14:26:26.158Z,74.30
2019-02-06T14:29:14.049Z,74.40
2019-02-06T14:31:59.078Z,74.50
2019-02-06T14:34:38.261Z,74.80
2019-02-06T14:37:36.270Z,74.70
2019-02-06T14:40:12.477Z,74.80
2019-02-06T14:43:03.917Z,74.90
2019-02-06T14:45:51.073Z,74.80
2019-02-06T14:48:41.044Z,75.00
2019-02-06T14:51:23.589Z,75.00
2019-02-06T14:54:02.620Z,75.10
2019-02-06T14:56:38.656Z,75.30
2019-02-06T14:59:25.223Z,75.40
2019-02-06T15:02:01.369Z,75.40
2019-02-06T15:04:44.845Z,75.20
2019-02-06T15:07:32.945Z,75.00
2019-02-06T15:10:30.577Z,74.90
2019-02-06T15:13:09.705Z,75.00
2019-02-06T15:15:50.317Z,74.90
2019-02-06T15:18:27.086Z,75.00
2019-02-06T15:21:23.921Z,75.00
2019-02-06T15:23:52.038Z,75.20
2019-02-06T15:26:22.105Z,75.50
2019-02-06T15:28:58.025Z,75.50
2019-02-06T15:31:36.929Z,75.60
2019-02-06T15:34:29.862Z,75.40
2019-02-06T15:37:15.107Z,75.40
2019-02-06T15:39:56.985Z,75.50
2019-02-06T15:42:30.301Z,75.70
2019-02-06T15:45:26.510Z,76.40
2019-02-06T15:47:59.452Z,75.90
2019-02-06T15:51:03.573Z,76.10
2019-02-06T15:53:48.402Z,76.10
2019-02-06T15:56:33.818Z,76.10
2019-02-06T15:59:06.699Z,76.20
2019-02-06T16:01:56.755Z,76.40
2019-02-06T16:04:37.757Z,76.50
2019-02-06T16:07:10.704Z,76.50
2019-02-06T16:09:59.066Z,76.50
2019-02-06T16:12:32.077Z,76.50
2019-02-06T16:15:20.453Z,76.40
2019-02-06T16:17:50.609Z,76.20
2019-02-06T16:20:39.030Z,76.00
2019-02-06T16:23:11.949Z,76.10
2019-02-06T16:25:44.838Z,76.20
2019-02-06T16:28:33.169Z,76.40
2019-02-06T16:31:07.210Z,76.50
2019-02-06T16:33:45.289Z,76.50
2019-02-06T16:36:19.382Z,76.80
2019-02-06T16:38:54.995Z,76.90
2019-02-06T16:41:53.125Z,76.90
2019-02-06T16:44:18.168Z,77.10
2019-02-06T16:46:54.693Z,76.80
2019-02-06T16:49:42.964Z,76.60
2019-02-06T16:52:25.372Z,76.40
2019-02-06T16:55:28.917Z,76.30
2019-02-06T16:58:04.885Z,76.30
2019-02-06T17:00:55.355Z,76.50
2019-02-06T17:03:31.277Z,76.60
2019-02-06T17:06:19.585Z,76.70
2019-02-06T17:08:49.715Z,76.70
2019-02-06T17:11:20.053Z,76.70
2019-02-06T17:13:59.294Z,76.50
2019-02-06T17:16:59.602Z,76.50
2019-02-06T17:19:47.947Z,76.50
2019-02-06T17:22:24.103Z,76.50
2019-02-06T17:25:11.196Z,76.50
2019-02-06T17:27:44.388Z,76.50
2019-02-06T17:30:23.855Z,76.50
2019-02-06T17:33:02.540Z,76.60
2019-02-06T17:35:32.722Z,76.70
2019-02-06T17:38:14.813Z,76.60
2019-02-06T17:41:03.318Z,76.50
2019-02-06T17:43:45.407Z,76.30
2019-02-06T17:46:15.733Z,76.10
2019-02-06T17:48:48.663Z,76.10
2019-02-06T17:51:41.256Z,76.00
2019-02-06T17:54:20.207Z,76.00
2019-02-06T17:56:46.561Z,76.10
2019-02-06T17:59:12.906Z,76.00
2019-02-06T18:01:39.363Z,76.00
2019-02-06T18:04:05.704Z,75.80
2019-02-06T18:06:32.049Z,75.80
2019-02-06T18:08:58.385Z,75.80
2019-02-06T18:11:24.855Z,75.70
2019-02-06T18:13:52.440Z,75.80
2019-02-06T18:16:21.365Z,76.00
2019-02-06T18:18:46.937Z,76.40
2019-02-06T18:21:13.189Z,76.50
2019-02-06T18:23:39.615Z,76.60
2019-02-06T18:26:05.968Z,76.80
2019-02-06T18:28:32.317Z,77.10
2019-02-06T18:30:58.677Z,77.10
2019-02-06T18:33:25.749Z,77.10
2019-02-06T18:35:52.091Z,77.10
2019-02-06T18:38:18.465Z,77.10
2019-02-06T18:40:45.977Z,77.10
2019-02-06T18:43:12.317Z,76.90
2019-02-06T18:45:39.517Z,76.80
2019-02-06T18:48:07.782Z,76.70
2019-02-06T18:50:35.718Z,76.60
2019-02-06T18:53:01.975Z,76.70
2019-02-06T18:55:28.411Z,76.50
2019-02-06T18:57:55.049Z,76.40
2019-02-06T19:00:24.112Z,76.30
2019-02-06T19:02:50.969Z,76.20
2019-02-06T19:05:20.296Z,76.20
2019-02-06T19:07:46.651Z,76.10
2019-02-06T19:10:16.789Z,75.90
2019-02-06T19:12:48.882Z,75.90
2019-02-06T19:15:12.306Z,76.20
2019-02-06T19:17:38.669Z,76.50
2019-02-06T19:20:09.130Z,76.50
2019-02-06T19:22:35.499Z,76.80
2019-02-06T19:25:02.559Z,76.90
2019-02-06T19:27:28.975Z,76.80
2019-02-06T19:29:55.334Z,76.60
2019-02-06T19:32:21.798Z,76.80
2019-02-06T19:34:48.129Z,76.80
2019-02-06T19:37:14.482Z,76.70
2019-02-06T19:39:40.833Z,76.90
2019-02-06T19:42:07.635Z,76.90
2019-02-06T19:44:33.974Z,77.10
2019-02-06T19:47:00.319Z,76.80
2019-02-06T19:49:26.670Z,76.90
2019-02-06T19:51:53.010Z,77.10
2019-02-06T19:54:19.337Z,76.80
2019-02-06T19:56:45.687Z,77.00
2019-02-06T19:59:12.189Z,77.20
2019-02-06T20:01:38.677Z,77.40
2019-02-06T20:04:05.014Z,77.60
2019-02-06T20:06:31.762Z,77.50
2019-02-06T20:08:58.135Z,77.40
2019-02-06T20:11:24.979Z,77.70
2019-02-06T20:13:51.964Z,77.80
2019-02-06T20:16:18.312Z,77.90
2019-02-06T20:18:57.988Z,78.10
2019-02-06T20:21:24.337Z,78.00
2019-02-06T20:23:50.658Z,77.80
2019-02-06T20:26:17.319Z,77.50
2019-02-06T20:28:43.679Z,77.30
2019-02-06T20:31:10.140Z,77.20
2019-02-06T20:33:36.482Z,77.20
2019-02-06T20:36:02.850Z,77.10
2019-02-06T20:38:29.201Z,77.00
2019-02-06T20:40:55.546Z,77.00
2019-02-06T20:43:22.509Z,77.10
2019-02-06T20:45:49.949Z,77.30
2019-02-06T20:48:16.612Z,77.30
2019-02-06T20:50:42.977Z,77.10
2019-02-06T20:53:09.365Z,77.10
2019-02-06T20:55:35.712Z,77.20
2019-02-06T20:58:02.144Z,77.40
2019-02-06T21:00:34.475Z,77.70
2019-02-06T21:03:00.884Z,77.60
2019-02-06T21:05:27.229Z,77.50
2019-02-06T21:07:53.603Z,77.40
2019-02-06T21:10:29.082Z,77.40
2019-02-06T21:12:55.427Z,77.30
2019-02-06T21:15:21.818Z,77.30
2019-02-06T21:17:48.156Z,77.20
2019-02-06T21:20:16.614Z,77.50
2019-02-06T21:22:42.954Z,77.80
2019-02-06T21:25:11.380Z,77.80
2019-02-06T21:27:38.100Z,77.40
2019-02-06T21:30:08.249Z,77.10
2019-02-06T21:32:34.598Z,76.90
2019-02-06T21:35:01.002Z,76.80
2019-02-06T21:37:29.882Z,76.60
2019-02-06T21:39:56.274Z,76.60
2019-02-06T21:42:22.615Z,76.50
2019-02-06T21:44:49.489Z,76.90
2019-02-06T21:47:15.847Z,77.10
2019-02-06T21:49:42.229Z,77.20
2019-02-06T21:52:08.610Z,77.10
2019-02-06T21:54:34.938Z,77.20
2019-02-06T21:57:01.271Z,77.20
2019-02-06T21:59:27.636Z,77.10
2019-02-06T22:01:54.011Z,77.10
2019-02-06T22:04:21.671Z,76.90
2019-02-06T22:06:48.066Z,76.90
2019-02-06T22:09:14.466Z,77.00
2019-02-06T22:11:40.851Z,76.90
2019-02-06T22:14:07.176Z,76.50
2019-02-06T22:16:34.561Z,76.40
2019-02-06T22:19:00.916Z,76.50
2019-02-06T22:21:27.268Z,76.10
2019-02-06T22:23:53.813Z,75.70
2019-02-06T22:26:20.158Z,75.30
2019-02-06T22:28:46.514Z,75.30
2019-02-06T22:31:12.888Z,75.40
2019-02-06T22:33:39.294Z,75.60
2019-02-06T22:36:05.617Z,75.90
2019-02-06T22:38:32.063Z,76.20
2019-02-06T22:40:58.394Z,76.40
2019-02-06T22:43:25.035Z,76.70
2019-02-06T22:45:51.377Z,76.70
2019-02-06T22:48:17.732Z,76.90
2019-02-06T22:50:44.063Z,77.30
2019-02-06T22:53:10.406Z,77.50
2019-02-06T22:55:36.760Z,78.00
2019-02-06T22:58:03.208Z,78.10
2019-02-06T23:00:46.502Z,78.10
2019-02-06T23:03:14.885Z,78.10
2019-02-06T23:05:41.221Z,78.00
2019-02-06T23:08:08.686Z,77.90
2019-02-06T23:10:36.834Z,78.30
2019-02-06T23:13:03.325Z,78.30
2019-02-06T23:15:29.674Z,78.40
2019-02-06T23:17:59.841Z,78.30
2019-02-06T23:20:26.178Z,78.10
2019-02-06T23:22:52.529Z,78.00
2019-02-06T23:25:18.856Z,78.10
2019-02-06T23:27:45.187Z,78.10
2019-02-06T23:30:13.525Z,78.10
2019-02-06T23:32:39.773Z,78.50
2019-02-06T23:35:06.122Z,78.80
2019-02-06T23:37:32.393Z,78.60
2019-02-06T23:39:58.614Z,77.70
2019-02-06T23:42:24.965Z,77.20
2019-02-06T23:44:51.324Z,77.30
2019-02-06T23:47:17.670Z,77.40
2019-02-06T23:49:43.998Z,77.20
2019-02-06T23:52:10.245Z,77.00
2019-02-06T23:54:36.560Z,76.80
2019-02-06T23:57:03.014Z,76.90
2019-02-06T23:59:29.405Z,77.20
